Portada
METAR-TAF:

METAR-TAF

Aeropuertos :

Atenas, Grecia

Aeropuerto Internacional Eleftherios Venizelos

latitud: 37-56N, longitud: 023-56E, altitud: 94 m

Observación

El informe se hizo hace 34 minutos, a las 08:50 UTC
Viento 18 kt del norte con ráfagas de 28 kt
Temperatura 22°C
Humedad 33%
Presión 1022 hPa
Visibilidad 10 km o más
sin nubes por debajo de 1500 m y sin presencia de cumulonimbus.

METAR: LGAV 190850Z 01018G28KT CAVOK 22/05 Q1022 NOSIG

Hora: 12:24 (09:24 UTC)

Pronóstico

El informe se hizo hace 4 horas y 24 minutos, a las 05:00 UTC
Pronóstico válido del 19 a las 06 UTC al 20 a las 06 UTC
Viento 15 kt del norte
Visibilidad 10 km o más
Escasas nubes a una altura de 3000 ft
Temporalmente
del 19 a las 06 UTC al 19 a las 16 UTC
Viento 18 kt del norte-noreste con ráfagas de 28 kt

TAF: LGAV 190500Z 1906/2006 01015KT 9999 FEW030 TEMPO 1906/1916 02018G28KT

Observaciones y pronósticos meteorológicos de más de 4000 aeropuertos (mensajes METAR y TAF).

Los puntos amarillos y rojos representan las estaciones disponibles.

Ponga el ratón en el punto deseado para ver el nombre de la estación.

Haga clic para ver las observaciones y los pronósticos meteorológicos.

Para cambiar el mapa : haga clic en los botones verdes con una cruz de color negro para hacer un zoom, en el botón verde con un guión para alejar o en las flechas verdes para mapas adyacentes.


METAR-TAF: